createdAt,value
2017-09-16T00:00:37.883Z,12.38
2017-09-16T00:01:37.869Z,12.31
2017-09-16T00:02:37.851Z,12.27
2017-09-16T00:03:37.839Z,12.41
2017-09-16T00:04:37.836Z,12.41
2017-09-16T00:05:38.032Z,12.35
2017-09-16T00:06:37.795Z,12.39
2017-09-16T00:07:37.790Z,12.35
2017-09-16T00:08:37.773Z,12.47
2017-09-16T00:09:37.765Z,12.35
2017-09-16T00:10:37.748Z,12.42
2017-09-16T00:11:38.086Z,12.31
2017-09-16T00:12:37.721Z,12.32
2017-09-16T00:13:37.706Z,12.32
2017-09-16T00:14:37.694Z,12.28
2017-09-16T00:15:37.689Z,12.27
2017-09-16T00:16:37.666Z,12.27
2017-09-16T00:17:38.014Z,12.16
2017-09-16T00:18:37.644Z,12.05
2017-09-16T00:19:37.631Z,12.07
2017-09-16T00:20:37.628Z,12.16
2017-09-16T00:21:37.606Z,12.17
2017-09-16T00:22:37.596Z,12.20
2017-09-16T00:23:37.961Z,12.20
2017-09-16T00:24:37.567Z,12.21
2017-09-16T00:25:37.557Z,12.24
2017-09-16T00:26:37.553Z,12.20
2017-09-16T00:27:37.524Z,12.19
2017-09-16T00:28:37.519Z,12.14
2017-09-16T00:29:37.889Z,12.21
2017-09-16T00:30:37.497Z,12.29
2017-09-16T00:31:37.483Z,12.21
2017-09-16T00:32:37.470Z,12.21
2017-09-16T00:33:37.447Z,12.24
2017-09-16T00:34:37.440Z,12.20
2017-09-16T00:35:37.809Z,12.16
2017-09-16T00:36:37.411Z,12.20
2017-09-16T00:37:37.399Z,12.16
2017-09-16T00:38:37.387Z,12.12
2017-09-16T00:39:37.370Z,12.09
2017-09-16T00:40:37.363Z,12.12
2017-09-16T00:41:37.706Z,12.09
2017-09-16T00:42:37.334Z,12.14
2017-09-16T00:43:37.316Z,12.13
2017-09-16T00:44:37.311Z,12.02
2017-09-16T00:45:37.293Z,11.95
2017-09-16T00:46:37.287Z,11.91
2017-09-16T00:47:37.575Z,11.90
2017-09-16T00:48:37.262Z,11.85
2017-09-16T00:49:37.242Z,11.82
2017-09-16T00:50:37.237Z,11.78
2017-09-16T00:51:37.220Z,11.82
2017-09-16T00:52:37.205Z,11.86
2017-09-16T00:53:37.493Z,11.82
2017-09-16T00:54:37.179Z,11.70
2017-09-16T00:55:37.174Z,11.67
2017-09-16T00:56:37.161Z,11.69
2017-09-16T00:57:37.140Z,11.62
2017-09-16T00:58:37.126Z,11.62
2017-09-16T00:59:37.135Z,11.60
2017-09-16T01:00:37.113Z,11.62
2017-09-16T01:01:37.090Z,11.60
2017-09-16T01:02:37.084Z,11.58
2017-09-16T01:03:37.098Z,11.52
2017-09-16T01:04:37.048Z,11.54
2017-09-16T01:05:37.033Z,11.51
2017-09-16T01:06:37.026Z,11.49
2017-09-16T01:07:37.010Z,11.40
2017-09-16T01:08:37.422Z,11.40
2017-09-16T01:09:36.987Z,11.36
2017-09-16T01:10:36.978Z,11.37
2017-09-16T01:11:36.958Z,11.37
2017-09-16T01:12:36.939Z,11.35
2017-09-16T01:13:36.943Z,11.29
2017-09-16T01:14:36.943Z,11.33
2017-09-16T01:15:36.906Z,11.33
2017-09-16T01:16:36.888Z,11.35
2017-09-16T01:17:36.879Z,11.28
2017-09-16T01:18:36.860Z,11.33
2017-09-16T01:19:37.668Z,11.21
2017-09-16T01:20:36.845Z,11.21
2017-09-16T01:21:36.826Z,11.22
2017-09-16T01:22:36.809Z,11.18
2017-09-16T01:23:36.802Z,11.21
2017-09-16T01:24:36.785Z,11.19
2017-09-16T01:25:37.074Z,11.17
2017-09-16T01:26:36.761Z,11.19
2017-09-16T01:27:36.747Z,11.29
2017-09-16T01:28:36.735Z,11.19
2017-09-16T01:29:36.721Z,11.32
2017-09-16T01:30:36.707Z,11.33
2017-09-16T01:31:36.721Z,11.42
2017-09-16T01:32:36.679Z,11.36
2017-09-16T01:33:36.666Z,11.42
2017-09-16T01:34:36.661Z,11.43
2017-09-16T01:35:36.634Z,11.58
2017-09-16T01:36:36.958Z,11.54
2017-09-16T01:37:36.618Z,11.52
2017-09-16T01:38:36.604Z,11.62
2017-09-16T01:39:36.585Z,11.67
2017-09-16T01:40:36.577Z,11.64
2017-09-16T01:41:36.566Z,11.57
2017-09-16T01:42:36.867Z,11.58
2017-09-16T01:43:36.537Z,11.64
2017-09-16T01:44:36.525Z,11.67
2017-09-16T01:45:36.509Z,11.62
2017-09-16T01:46:36.496Z,11.64
2017-09-16T01:47:36.477Z,11.69
2017-09-16T01:48:36.771Z,11.58
2017-09-16T01:49:36.451Z,11.70
2017-09-16T01:50:36.445Z,11.73
2017-09-16T01:51:36.429Z,11.69
2017-09-16T01:52:36.413Z,11.78
2017-09-16T01:53:36.398Z,11.69
2017-09-16T01:54:36.415Z,11.64
2017-09-16T01:55:36.383Z,11.83
2017-09-16T01:56:36.655Z,11.85
2017-09-16T01:57:36.348Z,11.83
2017-09-16T01:58:36.332Z,11.83
2017-09-16T01:59:36.321Z,11.90
2017-09-16T02:00:36.305Z,11.86
2017-09-16T02:01:36.296Z,11.90
2017-09-16T02:02:36.610Z,11.85
2017-09-16T02:03:36.271Z,11.88
2017-09-16T02:04:36.256Z,11.86
2017-09-16T02:05:36.247Z,11.95
2017-09-16T02:06:36.223Z,11.82
2017-09-16T02:07:36.215Z,11.91
2017-09-16T02:08:36.226Z,11.88
2017-09-16T02:09:36.189Z,11.80
2017-09-16T02:10:36.183Z,11.91
2017-09-16T02:11:36.553Z,11.83
2017-09-16T02:12:36.148Z,11.98
2017-09-16T02:13:36.137Z,11.86
2017-09-16T02:14:36.120Z,11.80
2017-09-16T02:15:36.116Z,11.82
2017-09-16T02:16:36.098Z,11.82
2017-09-16T02:17:36.114Z,11.80
2017-09-16T02:18:36.066Z,11.85
2017-09-16T02:19:36.050Z,11.86
2017-09-16T02:20:36.038Z,11.86
2017-09-16T02:21:36.466Z,11.88
2017-09-16T02:22:36.021Z,11.96
2017-09-16T02:23:36.003Z,11.99
2017-09-16T02:24:35.985Z,11.96
2017-09-16T02:25:35.987Z,11.94
2017-09-16T02:26:35.965Z,11.98
2017-09-16T02:27:36.250Z,11.95
2017-09-16T02:28:35.937Z,11.96
2017-09-16T02:29:35.919Z,11.94
2017-09-16T02:30:35.914Z,11.95
2017-09-16T02:31:35.900Z,11.95
2017-09-16T02:32:35.893Z,11.98
2017-09-16T02:33:35.905Z,11.95
2017-09-16T02:34:35.863Z,11.94
2017-09-16T02:35:35.850Z,11.96
2017-09-16T02:36:36.197Z,12.04
2017-09-16T02:37:35.825Z,11.99
2017-09-16T02:38:35.821Z,12.02
2017-09-16T02:39:35.791Z,12.01
2017-09-16T02:40:35.774Z,12.02
2017-09-16T02:41:35.769Z,11.98
2017-09-16T02:42:35.842Z,12.04
2017-09-16T02:43:35.742Z,12.01
2017-09-16T02:44:35.728Z,11.94
2017-09-16T02:45:35.724Z,11.95
2017-09-16T02:46:35.710Z,11.96
2017-09-16T02:47:35.729Z,11.96
2017-09-16T02:48:35.702Z,11.95
2017-09-16T02:49:35.661Z,12.01
2017-09-16T02:50:35.655Z,11.94
2017-09-16T02:51:35.646Z,11.91
2017-09-16T02:52:35.615Z,11.94
2017-09-16T02:53:35.844Z,11.90
2017-09-16T02:54:35.600Z,11.94
2017-09-16T02:55:35.588Z,11.82
2017-09-16T02:56:35.568Z,11.94
2017-09-16T02:57:35.556Z,12.02
2017-09-16T02:58:35.537Z,11.90
2017-09-16T02:59:35.952Z,11.96
2017-09-16T03:00:35.513Z,11.88
2017-09-16T03:01:35.505Z,11.98
2017-09-16T03:02:35.488Z,11.90
2017-09-16T03:03:35.483Z,11.91
2017-09-16T03:04:35.458Z,11.94
2017-09-16T03:05:35.660Z,11.91
2017-09-16T03:06:35.437Z,11.95
2017-09-16T03:07:35.438Z,11.95
2017-09-16T03:08:35.417Z,12.02
2017-09-16T03:09:35.399Z,11.94
2017-09-16T03:10:35.394Z,11.88
2017-09-16T03:11:35.712Z,11.86
2017-09-16T03:12:35.352Z,11.90
2017-09-16T03:13:35.343Z,11.82
2017-09-16T03:14:35.326Z,11.88
2017-09-16T03:15:35.323Z,11.90
2017-09-16T03:16:35.301Z,11.88
2017-09-16T03:17:35.495Z,11.82
2017-09-16T03:18:35.282Z,11.75
2017-09-16T03:19:35.258Z,11.67
2017-09-16T03:20:35.262Z,11.69
2017-09-16T03:21:35.238Z,11.72
2017-09-16T03:22:35.225Z,11.64
2017-09-16T03:23:35.501Z,11.55
2017-09-16T03:24:35.202Z,11.60
2017-09-16T03:25:35.179Z,11.47
2017-09-16T03:26:35.456Z,11.43
2017-09-16T03:27:35.155Z,11.29
2017-09-16T03:28:35.145Z,11.18
2017-09-16T03:29:35.551Z,11.04
2017-09-16T03:30:35.124Z,11.02
2017-09-16T03:31:35.109Z,10.96
2017-09-16T03:32:35.089Z,10.79
2017-09-16T03:33:35.075Z,10.85
2017-09-16T03:34:35.064Z,10.81
2017-09-16T03:35:35.075Z,10.74
2017-09-16T03:36:35.045Z,10.70
2017-09-16T03:37:35.020Z,10.71
2017-09-16T03:38:35.312Z,10.61
2017-09-16T03:39:34.993Z,10.64
2017-09-16T03:40:34.983Z,10.66
2017-09-16T03:41:34.967Z,10.63
2017-09-16T03:42:34.955Z,10.61
2017-09-16T03:43:34.937Z,10.56
2017-09-16T03:44:34.951Z,10.64
2017-09-16T03:45:34.915Z,10.64
2017-09-16T03:46:34.899Z,10.61
2017-09-16T03:47:34.884Z,10.53
2017-09-16T03:48:34.889Z,10.53
2017-09-16T03:49:34.883Z,10.68
2017-09-16T03:50:34.857Z,10.59
2017-09-16T03:51:34.831Z,10.68
2017-09-16T03:52:34.823Z,10.60
2017-09-16T03:53:34.804Z,10.56
2017-09-16T03:54:34.819Z,10.61
2017-09-16T03:55:34.784Z,10.55
2017-09-16T03:56:34.762Z,10.61
2017-09-16T03:57:34.751Z,10.51
2017-09-16T03:58:34.744Z,10.59
2017-09-16T03:59:35.138Z,10.47
2017-09-16T04:00:34.710Z,10.53
2017-09-16T04:01:34.696Z,10.52
2017-09-16T04:02:34.680Z,10.44
2017-09-16T04:03:34.674Z,10.53
2017-09-16T04:04:34.656Z,10.52
2017-09-16T04:05:34.871Z,10.52
2017-09-16T04:06:34.627Z,10.60
2017-09-16T04:07:34.613Z,10.59
2017-09-16T04:08:34.598Z,10.56
2017-09-16T04:09:34.587Z,10.70
2017-09-16T04:10:34.599Z,10.66
2017-09-16T04:11:34.555Z,10.78
2017-09-16T04:12:34.547Z,10.86
2017-09-16T04:13:34.527Z,10.81
2017-09-16T04:14:34.550Z,10.94
2017-09-16T04:15:34.501Z,10.96
2017-09-16T04:16:34.490Z,10.89
2017-09-16T04:17:34.473Z,11.00
2017-09-16T04:18:34.460Z,10.96
2017-09-16T04:19:34.878Z,11.00
2017-09-16T04:20:34.431Z,11.03
2017-09-16T04:21:34.435Z,10.96
2017-09-16T04:22:34.412Z,10.91
2017-09-16T04:23:34.391Z,10.96
2017-09-16T04:24:34.379Z,10.92
2017-09-16T04:25:34.402Z,10.99
2017-09-16T04:26:34.352Z,10.97
2017-09-16T04:27:34.338Z,10.99
2017-09-16T04:28:34.331Z,10.96
2017-09-16T04:29:34.519Z,10.92
2017-09-16T04:30:34.299Z,10.91
2017-09-16T04:31:34.290Z,10.91
2017-09-16T04:32:34.275Z,10.96
2017-09-16T04:33:34.261Z,10.92
2017-09-16T04:34:34.244Z,10.89
2017-09-16T04:35:34.537Z,10.89
2017-09-16T04:36:34.214Z,10.85
2017-09-16T04:37:34.208Z,10.70
2017-09-16T04:38:34.189Z,10.67
2017-09-16T04:39:34.179Z,10.70
2017-09-16T04:40:34.162Z,10.66
2017-09-16T04:41:34.176Z,10.63
2017-09-16T04:42:34.129Z,10.59
2017-09-16T04:43:34.123Z,10.59
2017-09-16T04:44:34.106Z,10.59
2017-09-16T04:45:34.093Z,10.56
2017-09-16T04:46:34.388Z,10.60
2017-09-16T04:47:34.062Z,10.66
2017-09-16T04:48:34.052Z,10.63
2017-09-16T04:49:34.040Z,10.60
2017-09-16T04:50:34.020Z,10.60
2017-09-16T04:51:34.015Z,10.60
2017-09-16T04:52:34.341Z,10.61
2017-09-16T04:53:33.992Z,10.61
2017-09-16T04:54:33.972Z,10.59
2017-09-16T04:55:33.956Z,10.61
2017-09-16T04:56:33.942Z,10.61
2017-09-16T04:57:33.928Z,10.63
2017-09-16T04:58:34.122Z,10.56
2017-09-16T04:59:33.906Z,10.56
2017-09-16T05:00:33.884Z,10.59
2017-09-16T05:01:33.878Z,10.61
2017-09-16T05:02:33.861Z,10.52
2017-09-16T05:03:33.844Z,10.48
2017-09-16T05:04:34.180Z,10.47
2017-09-16T05:05:33.817Z,10.38
2017-09-16T05:06:33.805Z,10.42
2017-09-16T05:07:33.788Z,10.36
2017-09-16T05:08:33.775Z,10.38
2017-09-16T05:09:33.766Z,10.32
2017-09-16T05:10:34.134Z,10.30
2017-09-16T05:11:33.735Z,10.36
2017-09-16T05:12:33.721Z,10.38
2017-09-16T05:13:33.726Z,10.34
2017-09-16T05:14:33.700Z,10.36
2017-09-16T05:15:33.675Z,10.32
2017-09-16T05:16:33.873Z,10.32
2017-09-16T05:17:33.656Z,10.34
2017-09-16T05:18:33.642Z,10.38
2017-09-16T05:19:33.628Z,10.30
2017-09-16T05:20:33.618Z,10.40
2017-09-16T05:21:33.624Z,10.29
2017-09-16T05:22:33.618Z,10.30
2017-09-16T05:23:33.577Z,10.34
2017-09-16T05:24:33.554Z,10.32
2017-09-16T05:25:33.950Z,10.33
2017-09-16T05:26:33.535Z,10.23
2017-09-16T05:27:33.511Z,10.25
2017-09-16T05:28:33.497Z,10.25
2017-09-16T05:29:33.489Z,10.34
2017-09-16T05:30:33.483Z,10.32
2017-09-16T05:31:33.493Z,10.36
2017-09-16T05:32:33.443Z,10.34
2017-09-16T05:33:33.433Z,10.33
2017-09-16T05:34:33.423Z,10.36
2017-09-16T05:35:33.402Z,10.32
2017-09-16T05:36:33.829Z,10.33
2017-09-16T05:37:33.382Z,10.40
2017-09-16T05:38:33.364Z,10.33
2017-09-16T05:39:33.349Z,10.38
2017-09-16T05:40:33.331Z,10.34
2017-09-16T05:41:33.838Z,10.34
2017-09-16T05:42:33.522Z,10.34
2017-09-16T05:43:33.293Z,10.44
2017-09-16T05:44:33.274Z,10.38
2017-09-16T05:45:33.271Z,10.48
2017-09-16T05:46:33.252Z,10.44
2017-09-16T05:47:33.238Z,10.47
2017-09-16T05:48:33.657Z,10.56
2017-09-16T05:49:33.208Z,10.48
2017-09-16T05:50:33.191Z,10.53
2017-09-16T05:51:33.186Z,10.61
2017-09-16T05:52:33.165Z,10.51
2017-09-16T05:53:33.154Z,10.51
2017-09-16T05:54:33.493Z,10.61
2017-09-16T05:55:33.125Z,10.63
2017-09-16T05:56:33.116Z,10.48
2017-09-16T05:57:33.099Z,10.61
2017-09-16T05:58:33.093Z,10.59
2017-09-16T05:59:33.068Z,10.59
2017-09-16T06:00:33.092Z,10.52
2017-09-16T06:01:33.048Z,10.51
2017-09-16T06:02:33.032Z,10.55
2017-09-16T06:03:33.377Z,10.55
2017-09-16T06:04:33.009Z,10.53
2017-09-16T06:05:32.988Z,10.63
2017-09-16T06:06:32.986Z,10.60
2017-09-16T06:07:32.957Z,10.55
2017-09-16T06:08:33.156Z,10.59
2017-09-16T06:09:32.932Z,10.63
2017-09-16T06:10:32.930Z,10.59
2017-09-16T06:11:32.904Z,10.64
2017-09-16T06:12:32.895Z,10.60
2017-09-16T06:13:32.879Z,10.56
2017-09-16T06:14:33.078Z,10.64
2017-09-16T06:15:32.856Z,10.60
2017-09-16T06:16:32.845Z,10.56
2017-09-16T06:17:32.822Z,10.66
2017-09-16T06:18:32.808Z,10.66
2017-09-16T06:19:32.795Z,10.59
2017-09-16T06:20:32.887Z,10.60
2017-09-16T06:21:32.772Z,10.68
2017-09-16T06:22:32.763Z,10.64
2017-09-16T06:23:32.759Z,10.63
2017-09-16T06:24:32.729Z,10.64
2017-09-16T06:25:32.723Z,10.67
2017-09-16T06:26:33.143Z,10.67
2017-09-16T06:27:32.690Z,10.73
2017-09-16T06:28:32.672Z,10.71
2017-09-16T06:29:32.664Z,10.76
2017-09-16T06:30:32.650Z,10.78
2017-09-16T06:31:32.636Z,10.84
2017-09-16T06:32:32.974Z,10.82
2017-09-16T06:33:32.611Z,10.86
2017-09-16T06:34:32.597Z,10.97
2017-09-16T06:35:32.587Z,10.91
2017-09-16T06:36:32.564Z,10.94
2017-09-16T06:37:32.548Z,10.97
2017-09-16T06:38:32.567Z,10.92
2017-09-16T06:39:32.524Z,10.91
2017-09-16T06:40:32.514Z,10.82
2017-09-16T06:41:32.498Z,10.86
2017-09-16T06:42:32.807Z,10.82
2017-09-16T06:43:32.467Z,10.82
2017-09-16T06:44:32.465Z,10.85
2017-09-16T06:45:32.442Z,10.84
2017-09-16T06:46:32.437Z,10.82
2017-09-16T06:47:32.421Z,10.96
2017-09-16T06:48:32.724Z,10.92
2017-09-16T06:49:32.391Z,10.94
2017-09-16T06:50:32.381Z,10.94
2017-09-16T06:51:32.359Z,10.88
2017-09-16T06:52:32.367Z,10.91
2017-09-16T06:53:32.332Z,10.94
2017-09-16T06:54:32.394Z,11.00
2017-09-16T06:55:32.306Z,11.06
2017-09-16T06:56:32.295Z,11.10
2017-09-16T06:57:32.291Z,11.11
2017-09-16T06:58:32.265Z,11.14
2017-09-16T06:59:32.279Z,11.15
2017-09-16T07:00:32.276Z,11.17
2017-09-16T07:01:32.229Z,11.17
2017-09-16T07:02:32.512Z,11.32
2017-09-16T07:03:32.201Z,11.35
2017-09-16T07:04:32.187Z,11.36
2017-09-16T07:05:32.179Z,11.44
2017-09-16T07:06:32.348Z,11.39
2017-09-16T07:07:32.144Z,11.44
2017-09-16T07:08:32.496Z,11.49
2017-09-16T07:09:32.124Z,11.47
2017-09-16T07:10:32.105Z,11.49
2017-09-16T07:11:32.099Z,11.49
2017-09-16T07:12:32.083Z,11.52
2017-09-16T07:13:32.068Z,11.47
2017-09-16T07:14:32.268Z,11.57
2017-09-16T07:15:32.054Z,11.54
2017-09-16T07:16:32.629Z,11.52
2017-09-16T07:17:32.740Z,11.51
2017-09-16T07:18:32.715Z,11.65
2017-09-16T07:19:31.989Z,11.73
2017-09-16T07:20:32.413Z,11.65
2017-09-16T07:21:31.963Z,11.61
2017-09-16T07:22:31.963Z,11.58
2017-09-16T07:23:31.941Z,11.64
2017-09-16T07:24:32.056Z,11.62
2017-09-16T07:25:31.910Z,11.55
2017-09-16T07:26:32.242Z,11.62
2017-09-16T07:27:31.886Z,11.58
2017-09-16T07:28:31.975Z,11.61
2017-09-16T07:29:31.857Z,11.65
2017-09-16T07:30:32.032Z,11.65
2017-09-16T07:31:31.958Z,11.64
2017-09-16T07:32:31.844Z,11.75
2017-09-16T07:33:31.811Z,11.67
2017-09-16T07:34:31.791Z,11.67
2017-09-16T07:35:32.082Z,11.75
2017-09-16T07:36:31.768Z,11.80
2017-09-16T07:37:31.753Z,11.82
2017-09-16T07:38:31.744Z,11.90
2017-09-16T07:39:31.728Z,11.85
2017-09-16T07:40:31.719Z,11.85
2017-09-16T07:41:32.050Z,11.99
2017-09-16T07:42:31.688Z,11.95
2017-09-16T07:43:31.675Z,11.94
2017-09-16T07:44:31.668Z,12.02
2017-09-16T07:45:31.646Z,12.10
2017-09-16T07:46:31.635Z,12.05
2017-09-16T07:47:31.654Z,12.09
2017-09-16T07:48:31.623Z,12.09
2017-09-16T07:49:31.605Z,12.05
2017-09-16T07:50:31.898Z,12.12
2017-09-16T07:51:31.576Z,12.07
2017-09-16T07:52:31.564Z,12.02
2017-09-16T07:53:31.548Z,12.09
2017-09-16T07:54:31.536Z,12.13
2017-09-16T07:55:31.530Z,12.13
2017-09-16T07:56:31.727Z,12.05
2017-09-16T07:57:31.493Z,12.14
2017-09-16T07:58:31.490Z,12.10
2017-09-16T07:59:31.470Z,12.09
2017-09-16T08:00:31.464Z,12.10
2017-09-16T08:01:31.443Z,12.09
2017-09-16T08:02:31.650Z,12.14
2017-09-16T08:03:31.423Z,12.09
2017-09-16T08:04:31.412Z,12.12
2017-09-16T08:05:31.397Z,12.10
2017-09-16T08:06:31.392Z,12.17
2017-09-16T08:07:31.364Z,12.16
2017-09-16T08:08:31.406Z,12.16
2017-09-16T08:09:31.342Z,12.13
2017-09-16T08:10:31.335Z,12.14
2017-09-16T08:11:31.539Z,12.09
2017-09-16T08:12:31.301Z,12.14
2017-09-16T08:13:31.503Z,12.07
2017-09-16T08:14:31.278Z,12.05
2017-09-16T08:15:31.267Z,12.09
2017-09-16T08:16:31.268Z,12.07
2017-09-16T08:17:31.242Z,12.12
2017-09-16T08:18:31.235Z,12.17
2017-09-16T08:19:31.591Z,12.17
2017-09-16T08:20:31.205Z,12.12
2017-09-16T08:21:31.349Z,12.20
2017-09-16T08:24:17.148Z,12.27
2017-09-16T08:25:17.516Z,12.13
2017-09-16T08:26:17.121Z,12.13
2017-09-16T08:27:17.318Z,12.16
2017-09-16T08:28:17.078Z,12.14
2017-09-16T08:29:18.219Z,12.13
2017-09-16T08:30:24.459Z,12.16
2017-09-16T08:31:18.166Z,12.12
2017-09-16T08:32:17.371Z,12.14
2017-09-16T08:33:17.123Z,12.27
2017-09-16T08:42:55.356Z,12.20
2017-09-16T08:46:41.428Z,12.20
2017-09-16T08:47:37.120Z,12.28
2017-09-16T09:01:22.568Z,12.27
2017-09-16T09:02:02.775Z,12.34
2017-09-16T09:03:02.748Z,12.37
2017-09-16T09:04:02.730Z,12.35
2017-09-16T09:05:02.723Z,12.45
2017-09-16T09:06:02.836Z,12.41
2017-09-16T09:07:03.890Z,12.49
2017-09-16T09:08:03.363Z,12.52
2017-09-16T09:09:02.661Z,12.49
2017-09-16T09:16:12.947Z,12.75
2017-09-16T09:16:29.674Z,12.72
2017-09-16T09:17:28.957Z,12.79
2017-09-16T09:23:47.088Z,12.85
2017-09-16T09:24:46.091Z,12.89
2017-09-16T09:25:46.081Z,12.87
2017-09-16T09:26:46.123Z,12.92
2017-09-16T09:27:46.049Z,12.90
2017-09-16T09:28:46.031Z,12.86
2017-09-16T09:29:46.155Z,12.93
2017-09-16T09:30:46.008Z,12.93
2017-09-16T09:31:45.995Z,12.90
2017-09-16T09:32:45.975Z,12.92
2017-09-16T09:33:45.989Z,12.93
2017-09-16T09:34:45.955Z,12.92
2017-09-16T09:35:46.161Z,12.93
2017-09-16T09:36:45.929Z,12.97
2017-09-16T09:37:45.916Z,13.07
2017-09-16T09:38:45.909Z,13.14
2017-09-16T09:39:45.895Z,13.25
2017-09-16T09:40:45.882Z,13.29
2017-09-16T09:41:46.157Z,13.39
2017-09-16T09:42:45.854Z,13.29
2017-09-16T09:43:45.841Z,13.41
2017-09-16T09:44:45.848Z,13.41
2017-09-16T09:45:45.828Z,13.42
2017-09-16T09:46:45.809Z,13.42
2017-09-16T09:47:45.824Z,13.44
2017-09-16T09:48:45.786Z,13.44
2017-09-16T09:49:45.772Z,13.55
2017-09-16T09:50:45.759Z,13.52
2017-09-16T09:51:46.051Z,13.48
2017-09-16T09:52:45.733Z,13.48
2017-09-16T09:53:45.721Z,13.60
2017-09-16T09:54:45.715Z,13.59
2017-09-16T09:55:45.701Z,13.55
2017-09-16T09:56:45.696Z,13.59
2017-09-16T09:57:45.710Z,13.60
2017-09-16T09:58:45.667Z,13.62
2017-09-16T09:59:45.657Z,13.69
2017-09-16T10:00:45.653Z,13.59
2017-09-16T10:01:45.629Z,13.62
2017-09-16T10:02:45.652Z,13.66
2017-09-16T10:03:45.610Z,13.66
2017-09-16T10:04:45.607Z,13.69
2017-09-16T10:05:45.587Z,13.70
2017-09-16T10:06:45.573Z,13.75
2017-09-16T10:07:45.601Z,13.82
2017-09-16T10:08:45.561Z,13.79
2017-09-16T10:09:45.536Z,13.78
2017-09-16T10:10:45.533Z,13.79
2017-09-16T10:11:45.527Z,13.91
2017-09-16T10:12:45.541Z,13.95
2017-09-16T10:13:45.490Z,13.89
2017-09-16T10:14:45.546Z,13.91
2017-09-16T10:15:45.471Z,14.04
2017-09-16T10:16:45.464Z,14.02
2017-09-16T10:17:45.805Z,13.97
2017-09-16T10:18:45.433Z,13.99
2017-09-16T10:19:45.424Z,14.12
2017-09-16T10:20:45.410Z,14.14
2017-09-16T10:21:45.403Z,14.15
2017-09-16T10:22:45.389Z,14.12
2017-09-16T10:23:45.740Z,14.17
2017-09-16T10:24:45.370Z,14.15
2017-09-16T10:25:45.360Z,14.29
2017-09-16T10:26:45.348Z,14.32
2017-09-16T10:27:45.339Z,14.27
2017-09-16T10:28:45.325Z,14.29
2017-09-16T10:29:45.521Z,14.33
2017-09-16T10:30:45.306Z,14.32
2017-09-16T10:31:45.291Z,14.27
2017-09-16T10:32:45.287Z,14.25
2017-09-16T10:33:45.268Z,14.21
2017-09-16T10:34:45.259Z,14.32
2017-09-16T10:35:45.280Z,14.21
2017-09-16T10:36:45.243Z,14.20
2017-09-16T10:37:45.225Z,14.20
2017-09-16T10:38:45.216Z,14.25
2017-09-16T10:39:45.517Z,14.33
2017-09-16T10:40:45.228Z,14.29
2017-09-16T10:41:45.181Z,14.28
2017-09-16T10:42:45.168Z,14.32
2017-09-16T10:43:45.158Z,14.24
2017-09-16T10:44:45.152Z,14.29
2017-09-16T10:45:45.165Z,14.37
2017-09-16T10:46:45.127Z,14.43
2017-09-16T10:47:45.267Z,14.46
2017-09-16T10:48:45.112Z,14.52
2017-09-16T10:49:45.094Z,14.57
2017-09-16T10:50:45.109Z,14.70
2017-09-16T10:51:45.086Z,14.72
2017-09-16T10:52:45.059Z,14.72
2017-09-16T10:53:45.525Z,14.84
2017-09-16T10:54:45.043Z,14.77
2017-09-16T10:55:45.345Z,14.80
2017-09-16T10:56:45.020Z,14.81
2017-09-16T10:57:45.002Z,14.75
2017-09-16T10:58:44.993Z,14.84
2017-09-16T10:59:44.999Z,14.73
2017-09-16T11:00:44.972Z,14.80
2017-09-16T11:01:45.184Z,14.86
2017-09-16T11:02:44.953Z,14.89
2017-09-16T11:03:44.949Z,14.84
2017-09-16T11:04:44.929Z,14.89
2017-09-16T11:05:44.940Z,14.98
2017-09-16T11:06:44.935Z,14.98
2017-09-16T11:07:44.949Z,15.10
2017-09-16T11:08:44.890Z,15.01
2017-09-16T11:09:44.884Z,15.13
2017-09-16T11:10:44.873Z,15.14
2017-09-16T11:11:44.857Z,15.14
2017-09-16T11:12:45.228Z,15.11
2017-09-16T11:13:44.838Z,15.09
2017-09-16T11:14:44.823Z,15.19
2017-09-16T11:15:44.818Z,15.13
2017-09-16T11:16:44.804Z,15.01
2017-09-16T11:17:44.793Z,14.99
2017-09-16T11:18:45.019Z,14.96
2017-09-16T11:19:44.776Z,15.01
2017-09-16T11:20:44.761Z,14.98
2017-09-16T11:21:44.752Z,14.96
2017-09-16T11:22:44.743Z,14.95
2017-09-16T11:23:44.746Z,14.99
2017-09-16T11:24:45.068Z,14.89
2017-09-16T11:25:44.741Z,14.98
2017-09-16T11:26:44.708Z,14.96
2017-09-16T11:27:44.686Z,15.13
2017-09-16T11:28:44.685Z,14.99
2017-09-16T11:29:44.668Z,15.03
2017-09-16T11:30:44.966Z,15.06
2017-09-16T11:31:44.649Z,15.13
2017-09-16T11:32:44.637Z,15.11
2017-09-16T11:33:44.632Z,15.03
2017-09-16T11:34:44.615Z,15.10
2017-09-16T11:35:44.613Z,15.02
2017-09-16T11:36:44.697Z,15.13
2017-09-16T11:37:44.595Z,15.14
2017-09-16T11:38:44.572Z,15.20
2017-09-16T11:39:44.574Z,15.23
2017-09-16T11:40:44.559Z,15.19
2017-09-16T11:41:44.976Z,15.16
2017-09-16T11:42:44.537Z,15.31
2017-09-16T11:43:44.519Z,15.19
2017-09-16T11:44:44.515Z,15.25
2017-09-16T11:45:44.502Z,15.11
2017-09-16T11:46:44.513Z,15.27
2017-09-16T11:47:44.681Z,15.21
2017-09-16T11:48:44.473Z,15.19
2017-09-16T11:49:44.461Z,15.16
2017-09-16T11:50:44.455Z,15.14
2017-09-16T11:51:44.438Z,15.16
2017-09-16T11:52:44.435Z,15.13
2017-09-16T11:53:44.846Z,15.13
2017-09-16T11:54:44.406Z,15.11
2017-09-16T11:55:44.401Z,15.17
2017-09-16T11:56:44.388Z,15.16
2017-09-16T11:57:44.380Z,15.13
2017-09-16T11:58:44.368Z,15.17
2017-09-16T11:59:44.707Z,15.21
2017-09-16T12:00:44.355Z,15.21
2017-09-16T12:01:44.344Z,15.32
2017-09-16T12:02:44.324Z,15.34
2017-09-16T12:03:44.322Z,15.34
2017-09-16T12:04:44.310Z,15.46
2017-09-16T12:05:44.766Z,15.50
2017-09-16T12:06:44.292Z,15.59
2017-09-16T12:07:44.278Z,15.69
2017-09-16T12:08:44.262Z,15.65
2017-09-16T12:09:44.257Z,15.62
2017-09-16T12:10:44.251Z,15.75
2017-09-16T12:11:44.631Z,15.86
2017-09-16T12:12:44.225Z,15.83
2017-09-16T12:13:44.228Z,15.90
2017-09-16T12:14:44.205Z,15.92
2017-09-16T12:15:44.197Z,16.00
2017-09-16T12:16:44.188Z,15.93
2017-09-16T12:17:44.210Z,16.05
2017-09-16T12:18:44.161Z,16.08
2017-09-16T12:19:44.157Z,16.12
2017-09-16T12:20:44.148Z,16.05
2017-09-16T12:21:44.376Z,16.04
2017-09-16T12:22:44.140Z,16.14
2017-09-16T12:23:44.120Z,16.09
2017-09-16T12:24:44.112Z,16.11
2017-09-16T12:25:44.104Z,16.05
2017-09-16T12:26:44.094Z,16.02
2017-09-16T12:27:44.431Z,15.90
2017-09-16T12:28:44.077Z,15.87
2017-09-16T12:29:44.068Z,15.84
2017-09-16T12:30:44.048Z,15.93
2017-09-16T12:31:44.050Z,15.97
2017-09-16T12:32:44.035Z,16.04
2017-09-16T12:33:44.046Z,16.04
2017-09-16T12:34:44.025Z,16.08
2017-09-16T12:35:44.000Z,16.09
2017-09-16T12:36:43.991Z,16.12
2017-09-16T12:37:44.000Z,16.15
2017-09-16T12:38:44.185Z,16.15
2017-09-16T12:39:43.963Z,16.15
2017-09-16T12:40:43.962Z,16.23
2017-09-16T12:41:43.952Z,16.23
2017-09-16T12:42:43.939Z,16.12
2017-09-16T12:43:43.928Z,16.25
2017-09-16T12:44:44.235Z,16.23
2017-09-16T12:45:43.916Z,16.33
2017-09-16T12:46:43.901Z,16.28
2017-09-16T12:47:43.911Z,16.33
2017-09-16T12:48:43.879Z,16.30
2017-09-16T12:49:43.875Z,16.41
2017-09-16T12:50:44.150Z,16.30
2017-09-16T12:51:43.850Z,16.41
2017-09-16T12:52:43.840Z,16.48
2017-09-16T12:53:43.830Z,16.50
2017-09-16T12:54:43.826Z,16.56
2017-09-16T12:55:43.818Z,16.57
2017-09-16T12:56:44.206Z,16.53
2017-09-16T12:57:43.791Z,16.56
2017-09-16T12:58:43.782Z,16.60
2017-09-16T12:59:43.776Z,16.67
2017-09-16T13:00:43.770Z,16.71
2017-09-16T13:01:43.755Z,16.71
2017-09-16T13:02:43.950Z,16.64
2017-09-16T13:03:43.738Z,16.75
2017-09-16T13:04:43.727Z,16.75
2017-09-16T13:05:43.718Z,16.75
2017-09-16T13:06:43.709Z,16.71
2017-09-16T13:07:43.701Z,16.68
2017-09-16T13:08:43.721Z,16.64
2017-09-16T13:09:43.688Z,16.71
2017-09-16T13:10:43.687Z,16.63
2017-09-16T13:11:43.673Z,16.63
2017-09-16T13:12:43.663Z,16.64
2017-09-16T13:13:43.728Z,16.63
2017-09-16T13:14:43.647Z,16.52
2017-09-16T13:15:43.631Z,16.56
2017-09-16T13:16:43.624Z,16.60
2017-09-16T13:17:43.615Z,16.52
2017-09-16T13:18:43.599Z,16.45
2017-09-16T13:19:43.975Z,16.46
2017-09-16T13:20:43.590Z,16.43
2017-09-16T13:21:43.571Z,16.31
2017-09-16T13:22:43.567Z,16.35
2017-09-16T13:23:43.554Z,16.28
2017-09-16T13:24:43.543Z,16.30
2017-09-16T13:25:43.580Z,16.24
2017-09-16T13:26:43.526Z,16.21
2017-09-16T13:27:43.524Z,16.23
2017-09-16T13:28:43.513Z,16.15